CDT,Max TemperatureF,Mean TemperatureF,Min TemperatureF,Max Dew PointF,MeanDew PointF,Min DewpointF,Max Humidity, Mean Humidity, Min Humidity, Max Sea Level PressureIn, Mean Sea Level PressureIn, Min Sea Level PressureIn, Max VisibilityMiles, Mean VisibilityMiles, Min VisibilityMiles, Max Wind SpeedMPH, Mean Wind SpeedMPH, Max Gust SpeedMPH,PrecipitationIn, CloudCover, Events, WindDirDegrees
2013-5-1,68,52,37,64,51,37,100,91,68,30.29,29.96,29.71,10,8,2,31,18,40,0.55,5,Rain-Snow-Thunderstorm,46
2013-5-2,53,44,35,37,32,25,100,71,35,30.53,30.44,30.29,10,8,2,31,21,44,0.50,6,Rain-Snow-Thunderstorm,4
2013-5-3,60,45,30,32,29,25,87,55,27,30.43,30.22,30.04,10,10,10,16,9,23,0.00,2,,338
2013-5-4,62,47,32,37,32,25,93,57,31,30.13,30.03,29.98,10,10,10,28,13,39,0.00,4,,348
2013-5-5,66,55,44,52,44,37,94,71,49,30.21,30.14,30.08,10,10,10,15,10,20,0.00,5,,12
2013-5-6,69,56,42,55,49,43,100,76,49,30.16,30.10,30.03,10,9,3,10,5,,0.00,1,,110
2013-5-7,77,65,53,59,54,50,100,75,47,30.11,30.00,29.87,10,9,2,21,9,29,0.04,4,Rain,152
2013-5-8,80,68,55,63,55,46,88,67,36,29.94,29.86,29.73,10,10,2,38,15,52,0.16,2,Rain-Thunderstorm,144
2013-5-9,73,64,55,59,57,54,100,80,57,30.03,29.95,29.86,10,9,2,20,8,23,0.19,5,Rain-Thunderstorm,22
2013-5-10,71,61,51,55,52,46,100,76,43,30.14,30.08,30.03,10,9,7,16,9,20,0.00,3,,9
2013-5-11,69,58,46,55,46,37,100,66,33,30.29,30.21,30.14,10,10,9,24,9,31,0.00,1,,357
2013-5-12,77,60,42,50,44,37,87,58,31,30.29,30.17,30.03,10,10,9,20,8,26,0.00,1,,181
2013-5-13,86,65,44,66,52,45,100,64,34,30.09,30.03,29.96,10,10,9,13,7,,0.00,0,,173
2013-5-14,86,75,64,55,48,41,68,39,23,29.99,29.93,29.84,10,10,10,20,15,31,0.00,0,,212
2013-5-15,75,65,55,64,59,52,100,77,53,29.88,29.85,29.80,10,10,4,20,10,25,0.00,0,Rain,166
2013-5-16,75,65,55,64,61,55,100,86,64,29.89,29.84,29.79,10,7,0,12,6,17,0.00,5,Fog,87
2013-5-17,73,64,55,72,65,55,100,98,88,29.91,29.87,29.84,10,4,0,16,7,20,0.00,6,Fog,130
2013-5-18,91,80,69,73,67,48,100,75,32,29.85,29.74,29.60,10,6,1,30,11,43,0.00,4,Thunderstorm,130
2013-5-19,82,73,64,70,62,48,88,72,41,29.72,29.64,29.55,10,10,6,28,13,50,0.00,3,Rain-Thunderstorm,106
2013-5-20,80,68,57,59,55,50,88,62,42,29.84,29.74,29.65,10,10,10,17,9,22,0.00,0,,16
2013-5-21,73,63,53,52,48,46,82,58,38,29.96,29.85,29.77,10,10,10,21,10,25,0.00,1,Thunderstorm,329
2013-5-22,80,63,46,57,50,45,94,64,39,29.97,29.90,29.84,10,10,9,13,6,17,0.00,1,,348
2013-5-23,64,60,57,57,55,50,100,81,63,30.16,30.07,29.93,10,10,9,20,11,26,0.00,4,Rain-Thunderstorm,79
2013-5-24,82,70,57,70,63,57,100,85,62,30.19,30.12,30.02,10,9,7,22,11,30,0.00,6,,130
2013-5-25,84,72,60,70,63,59,100,74,48,30.11,30.05,29.95,10,10,7,29,12,34,0.00,2,,184
2013-5-26,89,78,66,68,67,64,100,76,43,29.99,29.90,29.82,10,9,5,26,16,34,0.00,3,,172
2013-5-27,93,82,71,68,67,66,88,66,41,29.83,29.70,29.56,10,10,10,33,21,43,0.00,1,,188
2013-5-28,89,79,69,70,67,64,83,67,49,29.75,29.67,29.63,10,10,8,29,17,39,0.00,2,Thunderstorm,193
2013-5-29,80,70,60,68,64,54,88,77,61,29.72,29.63,29.51,10,10,5,32,19,46,0.00,4,Rain-Thunderstorm,169
2013-5-30,87,73,59,68,59,45,94,68,22,29.71,29.60,29.51,10,10,5,31,18,44,0.00,4,Rain-Thunderstorm,155
2013-5-31,84,72,60,68,64,54,100,77,37,29.78,29.70,29.60,10,8,0,18,8,26,0.00,3,Fog-Thunderstorm,13